createdAt,value
2022-12-28T00:00:54.485Z,5.50
2022-12-28T00:03:22.046Z,4.53
2022-12-28T00:05:49.881Z,4.60
2022-12-28T00:08:17.400Z,4.50
2022-12-28T00:11:08.596Z,5.00
2022-12-28T00:13:13.265Z,5.20
2022-12-28T00:15:40.800Z,4.77
2022-12-28T00:18:09.103Z,4.77
2022-12-28T00:20:36.674Z,4.70
2022-12-28T00:23:06.902Z,4.63
2022-12-28T00:25:37.140Z,4.67
2022-12-28T00:28:04.704Z,4.40
2022-12-28T00:30:32.241Z,4.60
2022-12-28T00:32:59.753Z,4.70
2022-12-28T00:35:28.085Z,4.43
2022-12-28T00:37:55.610Z,3.97
2022-12-28T00:40:24.275Z,3.57
2022-12-28T00:42:50.717Z,3.67
2022-12-28T00:45:19.009Z,4.47
2022-12-28T00:47:46.533Z,4.13
2022-12-28T00:50:15.991Z,4.73
2022-12-28T00:52:43.421Z,4.97
2022-12-28T00:55:10.949Z,4.43
2022-12-28T00:57:38.535Z,5.20
2022-12-28T01:00:06.211Z,4.37
2022-12-28T01:02:33.781Z,4.87
2022-12-28T01:05:02.470Z,5.50
2022-12-28T01:07:30.005Z,5.00
2022-12-28T01:09:57.549Z,5.10
2022-12-28T01:12:26.157Z,4.03
2022-12-28T01:14:53.684Z,5.53
2022-12-28T01:17:21.197Z,5.10
2022-12-28T01:19:53.735Z,5.00
2022-12-28T01:22:17.057Z,5.20
2022-12-28T01:24:44.600Z,6.47
2022-12-28T01:27:12.166Z,6.60
2022-12-28T01:29:39.689Z,5.27
2022-12-28T01:32:07.246Z,4.97
2022-12-28T01:34:36.528Z,4.47
2022-12-28T01:37:04.826Z,4.47
2022-12-28T01:39:32.344Z,4.17
2022-12-28T01:42:00.673Z,4.50
2022-12-28T01:44:33.974Z,4.17
2022-12-28T01:47:01.496Z,4.60
2022-12-28T01:49:51.082Z,4.20
2022-12-28T01:52:21.648Z,4.67
2022-12-28T01:54:54.997Z,4.70
2022-12-28T01:57:22.529Z,3.90
2022-12-28T01:59:52.740Z,3.90
2022-12-28T02:02:20.750Z,3.97
2022-12-28T02:04:48.904Z,3.90
2022-12-28T02:07:17.197Z,3.70
2022-12-28T02:09:44.777Z,3.80
2022-12-28T02:12:12.306Z,3.80
2022-12-28T02:14:40.607Z,3.70
2022-12-28T02:17:08.335Z,3.53
2022-12-28T02:19:44.889Z,3.03
2022-12-28T02:22:39.973Z,3.30
2022-12-28T02:25:25.266Z,3.10
2022-12-28T02:27:55.559Z,4.12
2022-12-28T02:30:23.118Z,3.30
2022-12-28T02:32:53.510Z,3.13
2022-12-28T02:35:51.548Z,3.00
2022-12-28T02:38:27.624Z,3.20
2022-12-28T02:40:58.584Z,3.17
2022-12-28T02:43:26.796Z,2.70
2022-12-28T02:46:12.226Z,2.30
2022-12-28T02:49:03.509Z,2.00
2022-12-28T02:51:36.210Z,3.00
2022-12-28T02:54:46.439Z,2.63
2022-12-28T02:57:41.316Z,2.30
2022-12-28T03:00:11.502Z,2.75
2022-12-28T03:02:42.420Z,2.83
2022-12-28T03:05:27.791Z,2.40
2022-12-28T03:08:13.739Z,2.33
2022-12-28T03:10:44.156Z,2.03
2022-12-28T03:13:11.692Z,2.20
2022-12-28T03:15:39.265Z,2.20
2022-12-28T03:18:31.071Z,2.17
2022-12-28T03:21:17.272Z,2.37
2022-12-28T03:24:03.741Z,2.10
2022-12-28T03:26:49.486Z,1.77
2022-12-28T03:29:35.887Z,2.07
2022-12-28T03:32:03.423Z,1.90
2022-12-28T03:34:31.714Z,1.90
2022-12-28T03:37:05.118Z,2.33
2022-12-28T03:39:47.877Z,1.97
2022-12-28T03:42:33.765Z,2.10
2022-12-28T03:45:01.299Z,2.60
2022-12-28T03:47:28.840Z,1.83
2022-12-28T03:49:56.426Z,2.13
2022-12-28T03:52:23.939Z,1.90
2022-12-28T03:54:51.465Z,2.15
2022-12-28T03:57:19.389Z,2.00
2022-12-28T03:59:46.905Z,1.90
2022-12-28T04:02:14.508Z,1.70
2022-12-28T04:04:42.004Z,2.10
2022-12-28T04:07:09.543Z,2.15
2022-12-28T04:09:37.072Z,1.90
2022-12-28T04:12:04.653Z,1.80
2022-12-28T04:14:32.181Z,1.90
2022-12-28T04:16:59.727Z,1.83
2022-12-28T04:19:28.044Z,1.70
2022-12-28T04:21:55.569Z,1.77
2022-12-28T04:24:23.106Z,1.63
2022-12-28T04:26:51.437Z,2.00
2022-12-28T04:29:18.962Z,1.70
2022-12-28T04:31:46.526Z,1.97
2022-12-28T04:34:14.058Z,1.50
2022-12-28T04:36:42.364Z,2.40
2022-12-28T04:39:09.892Z,1.80
2022-12-28T04:41:37.455Z,2.30
2022-12-28T04:44:05.003Z,1.80
2022-12-28T04:46:32.593Z,1.90
2022-12-28T04:49:00.104Z,2.05
2022-12-28T04:51:27.639Z,2.00
2022-12-28T04:53:55.156Z,1.80
2022-12-28T04:56:23.485Z,1.70
2022-12-28T04:58:54.196Z,1.63
2022-12-28T05:01:21.799Z,1.77
2022-12-28T05:03:55.175Z,2.00
2022-12-28T05:06:17.864Z,2.00
2022-12-28T05:08:46.153Z,2.40
2022-12-28T05:11:20.225Z,1.63
2022-12-28T05:13:47.765Z,1.40
2022-12-28T05:16:15.358Z,2.03
2022-12-28T05:18:42.855Z,1.70
2022-12-28T05:21:10.370Z,1.77
2022-12-28T05:23:37.905Z,1.60
2022-12-28T05:26:05.481Z,1.87
2022-12-28T05:28:33.683Z,2.13
2022-12-28T05:31:01.182Z,1.77
2022-12-28T05:33:31.609Z,1.93
2022-12-28T05:36:07.926Z,1.70
2022-12-28T05:38:36.451Z,1.93
2022-12-28T05:41:09.447Z,1.97
2022-12-28T05:43:36.988Z,1.83
2022-12-28T05:46:04.551Z,2.30
2022-12-28T05:48:34.826Z,1.77
2022-12-28T05:51:02.353Z,1.70
2022-12-28T05:53:30.494Z,2.07
2022-12-28T05:56:12.140Z,1.67
2022-12-28T05:58:34.432Z,2.07
2022-12-28T06:01:08.497Z,2.10
2022-12-28T06:03:36.002Z,1.97
2022-12-28T06:06:06.851Z,2.13
2022-12-28T06:08:34.413Z,1.70
2022-12-28T06:11:04.701Z,1.93
2022-12-28T06:13:32.228Z,2.13
2022-12-28T06:15:59.788Z,2.27
2022-12-28T06:18:27.323Z,2.50
2022-12-28T06:20:57.114Z,1.97
2022-12-28T06:23:22.445Z,2.67
2022-12-28T06:25:49.979Z,2.37
2022-12-28T06:28:17.493Z,2.00
2022-12-28T06:30:52.246Z,2.03
2022-12-28T06:33:13.368Z,1.90
2022-12-28T06:35:40.900Z,2.13
2022-12-28T06:38:10.421Z,1.90
2022-12-28T06:41:11.706Z,2.00
2022-12-28T06:43:06.157Z,1.93
2022-12-28T06:45:33.780Z,1.83
2022-12-28T06:48:01.282Z,1.70
2022-12-28T06:50:28.806Z,2.33
2022-12-28T06:52:57.131Z,1.87
2022-12-28T06:55:24.645Z,2.00
2022-12-28T06:57:52.939Z,1.93
2022-12-28T07:00:20.494Z,1.83
2022-12-28T07:02:48.879Z,1.87
2022-12-28T07:05:16.300Z,1.77
2022-12-28T07:07:43.875Z,3.30
2022-12-28T07:10:12.157Z,2.53
2022-12-28T07:12:40.451Z,2.20
2022-12-28T07:15:09.977Z,2.30
2022-12-28T07:17:37.507Z,2.37
2022-12-28T07:20:05.159Z,2.27
2022-12-28T07:22:33.544Z,2.00
2022-12-28T07:25:01.140Z,2.33
2022-12-28T07:27:28.722Z,2.57
2022-12-28T07:29:57.459Z,2.30
2022-12-28T07:32:25.499Z,1.97
2022-12-28T07:34:53.015Z,2.50
2022-12-28T07:37:20.571Z,2.40
2022-12-28T07:39:48.124Z,1.97
2022-12-28T07:42:15.692Z,2.80
2022-12-28T07:44:48.906Z,2.10
2022-12-28T07:47:11.738Z,2.00
2022-12-28T07:49:39.295Z,1.97
2022-12-28T07:52:06.896Z,2.47
2022-12-28T07:54:35.221Z,2.20
2022-12-28T07:57:05.586Z,2.50
2022-12-28T07:59:33.183Z,2.80
2022-12-28T08:02:00.827Z,2.90
2022-12-28T08:04:28.316Z,2.50
2022-12-28T08:06:55.970Z,1.93
2022-12-28T08:09:23.466Z,2.77
2022-12-28T08:11:51.031Z,2.13
2022-12-28T08:14:18.653Z,1.90
2022-12-28T08:16:46.938Z,1.80
2022-12-28T08:19:14.490Z,2.23
2022-12-28T08:21:42.123Z,1.90
2022-12-28T08:24:09.962Z,2.10
2022-12-28T08:26:38.207Z,1.70
2022-12-28T08:29:05.789Z,4.30
2022-12-28T08:31:33.456Z,2.13
2022-12-28T08:34:00.888Z,2.13
2022-12-28T08:36:28.503Z,2.60
2022-12-28T08:38:56.056Z,2.42
2022-12-28T08:41:23.598Z,2.40
2022-12-28T08:43:51.201Z,2.67
2022-12-28T08:46:21.810Z,2.80
2022-12-28T08:48:49.188Z,1.60
2022-12-28T08:51:16.763Z,2.13
2022-12-28T08:53:44.310Z,1.60
2022-12-28T08:56:11.887Z,1.90
2022-12-28T08:58:40.703Z,1.90
2022-12-28T09:01:14.420Z,1.80
2022-12-28T09:03:41.798Z,2.20
2022-12-28T09:06:09.313Z,2.72
2022-12-28T09:08:36.847Z,2.00
2022-12-28T09:11:04.382Z,2.72
2022-12-28T09:13:32.242Z,2.30
2022-12-28T09:15:59.838Z,2.80
2022-12-28T09:18:27.317Z,1.93
2022-12-28T09:20:54.863Z,2.90
2022-12-28T09:23:22.400Z,2.70
2022-12-28T09:25:50.042Z,2.50
2022-12-28T09:28:17.612Z,2.63
2022-12-28T09:30:45.139Z,2.30
2022-12-28T09:33:25.550Z,2.80
2022-12-28T09:35:53.065Z,2.40
2022-12-28T09:38:20.601Z,2.00
2022-12-28T09:40:48.201Z,2.17
2022-12-28T09:43:15.704Z,1.97
2022-12-28T09:45:43.256Z,2.10
2022-12-28T09:48:10.813Z,1.80
2022-12-28T09:50:38.333Z,1.37
2022-12-28T09:53:05.880Z,1.93
2022-12-28T09:55:36.861Z,2.40
2022-12-28T09:58:04.383Z,1.70
2022-12-28T10:00:47.454Z,1.93
2022-12-28T10:03:20.778Z,1.87
2022-12-28T10:05:48.259Z,1.80
2022-12-28T10:08:17.157Z,2.60
2022-12-28T10:10:48.576Z,1.67
2022-12-28T10:15:51.618Z,2.40
2022-12-28T10:18:19.884Z,1.77
2022-12-28T10:20:47.447Z,1.70
2022-12-28T10:23:14.982Z,1.60
2022-12-28T10:25:43.277Z,1.63
2022-12-28T10:28:11.161Z,1.50
2022-12-28T10:30:44.692Z,1.80
2022-12-28T10:33:13.962Z,2.30
2022-12-28T10:35:39.783Z,1.80
2022-12-28T10:38:08.267Z,1.67
2022-12-28T10:40:35.713Z,2.23
2022-12-28T10:43:08.640Z,1.73
2022-12-28T10:45:36.233Z,1.50
2022-12-28T10:48:03.857Z,1.87
2022-12-28T10:50:38.047Z,1.70
2022-12-28T10:53:04.728Z,2.20
2022-12-28T10:55:33.216Z,2.10
2022-12-28T10:58:30.001Z,2.20
2022-12-28T11:00:54.456Z,2.20
2022-12-28T11:03:25.262Z,1.60
2022-12-28T11:05:57.351Z,2.00
2022-12-28T11:08:21.030Z,1.87
2022-12-28T11:10:49.105Z,1.80
2022-12-28T11:13:21.956Z,1.90
2022-12-28T11:15:47.505Z,1.87
2022-12-28T11:18:15.077Z,1.80
2022-12-28T11:20:45.460Z,1.90
2022-12-28T11:23:12.993Z,1.63
2022-12-28T11:25:41.535Z,1.90
2022-12-28T11:28:22.159Z,2.15
2022-12-28T11:30:48.287Z,1.60
2022-12-28T11:33:43.586Z,1.90
2022-12-28T11:36:17.723Z,2.03
2022-12-28T11:38:46.054Z,1.93
2022-12-28T11:41:13.579Z,1.90
2022-12-28T11:43:41.160Z,1.77
2022-12-28T11:46:20.758Z,1.70
2022-12-28T11:48:58.048Z,1.50
2022-12-28T11:51:29.188Z,1.73
2022-12-28T11:53:56.720Z,1.80
2022-12-28T11:56:24.302Z,1.67
2022-12-28T11:59:00.601Z,1.70
2022-12-28T12:01:28.164Z,1.50
2022-12-28T12:03:59.303Z,1.50
2022-12-28T12:06:45.323Z,1.70
2022-12-28T12:09:21.741Z,1.70
2022-12-28T12:11:49.218Z,1.60
2022-12-28T12:14:16.750Z,1.30
2022-12-28T12:16:51.245Z,1.83
2022-12-28T12:19:24.634Z,4.17
2022-12-28T12:22:10.047Z,2.53
2022-12-28T12:24:37.567Z,1.60
2022-12-28T12:27:10.308Z,1.77
2022-12-28T12:29:38.628Z,2.47
2022-12-28T12:32:06.187Z,2.07
2022-12-28T12:34:39.873Z,1.70
2022-12-28T12:37:25.763Z,2.83
2022-12-28T12:39:56.093Z,2.70
2022-12-28T12:42:32.967Z,1.60
2022-12-28T12:45:06.281Z,2.00
2022-12-28T12:47:49.491Z,1.97
2022-12-28T12:50:35.024Z,1.90
2022-12-28T12:53:05.304Z,1.50
2022-12-28T12:55:56.949Z,1.23
2022-12-28T12:58:24.541Z,1.70
2022-12-28T13:01:10.601Z,1.40
2022-12-28T13:03:41.741Z,1.77
2022-12-28T13:06:09.270Z,1.80
2022-12-28T13:08:36.810Z,2.83
2022-12-28T13:11:04.376Z,1.70
2022-12-28T13:13:34.860Z,1.63
2022-12-28T13:16:03.240Z,1.97
2022-12-28T13:18:46.339Z,1.37
2022-12-28T13:20:58.284Z,1.40
2022-12-28T13:23:25.845Z,1.70
2022-12-28T13:25:53.433Z,1.70
2022-12-28T13:28:20.962Z,1.80
2022-12-28T13:31:06.989Z,1.63
2022-12-28T13:33:34.434Z,1.50
2022-12-28T13:36:04.674Z,2.00
2022-12-28T13:38:33.401Z,2.87
2022-12-28T13:41:00.927Z,1.87
2022-12-28T13:43:28.454Z,1.93
2022-12-28T13:45:56.932Z,1.97
2022-12-28T13:48:24.450Z,1.60
2022-12-28T13:50:52.761Z,1.80
2022-12-28T13:53:20.334Z,1.63
2022-12-28T13:55:47.869Z,1.90
2022-12-28T13:58:24.230Z,1.20
2022-12-28T14:00:51.795Z,1.47
2022-12-28T14:03:19.286Z,1.20
2022-12-28T14:05:48.719Z,1.13
2022-12-28T14:08:16.181Z,1.30
2022-12-28T14:10:44.547Z,0.93
2022-12-28T14:13:12.233Z,0.90
2022-12-28T14:15:41.540Z,1.30
2022-12-28T14:18:07.310Z,1.37
2022-12-28T14:20:34.880Z,1.50
2022-12-28T14:23:20.762Z,1.20
2022-12-28T14:25:48.331Z,1.17
2022-12-28T14:28:40.351Z,1.37
2022-12-28T14:31:08.239Z,1.30
2022-12-28T14:33:35.727Z,1.50
2022-12-28T14:36:03.249Z,1.27
2022-12-28T14:38:30.811Z,1.30
2022-12-28T14:40:59.115Z,1.23
2022-12-28T14:43:29.472Z,1.10
2022-12-28T14:48:30.564Z,1.20
2022-12-28T14:51:07.828Z,1.30
2022-12-28T14:53:35.405Z,1.03
2022-12-28T14:56:02.893Z,1.10
2022-12-28T14:58:55.682Z,1.10
2022-12-28T15:00:25.412Z,1.30
2022-12-28T15:01:23.442Z,1.35
2022-12-28T15:03:50.736Z,1.20
2022-12-28T15:06:18.313Z,1.00
2022-12-28T15:08:52.408Z,1.10
2022-12-28T15:11:19.944Z,1.37
2022-12-28T15:13:47.520Z,1.60
2022-12-28T15:16:15.253Z,1.20
2022-12-28T15:18:42.600Z,1.77
2022-12-28T15:21:10.153Z,1.30
2022-12-28T15:23:37.674Z,1.53
2022-12-28T15:26:11.764Z,2.00
2022-12-28T15:28:39.353Z,1.40
2022-12-28T15:31:06.930Z,1.23
2022-12-28T15:33:37.090Z,1.67
2022-12-28T15:36:12.129Z,1.20
2022-12-28T15:38:35.014Z,1.63
2022-12-28T15:41:03.319Z,1.13
2022-12-28T15:43:30.883Z,1.50
2022-12-28T15:45:58.417Z,1.20
2022-12-28T15:48:26.703Z,1.97
2022-12-28T15:50:54.279Z,1.87
2022-12-28T15:53:21.812Z,1.60
2022-12-28T15:55:50.835Z,1.60
2022-12-28T15:58:18.305Z,2.73
2022-12-28T16:00:47.666Z,2.40
2022-12-28T16:03:14.212Z,2.80
2022-12-28T16:05:41.997Z,1.40
2022-12-28T16:08:09.519Z,1.70
2022-12-28T16:10:37.813Z,1.23
2022-12-28T16:13:05.494Z,1.73
2022-12-28T16:15:33.041Z,1.70
2022-12-28T16:18:00.570Z,2.17
2022-12-28T16:20:28.900Z,1.67
2022-12-28T16:22:56.440Z,1.53
2022-12-28T16:25:23.960Z,1.50
2022-12-28T16:27:52.305Z,1.50
2022-12-28T16:30:19.837Z,1.30
2022-12-28T16:32:47.365Z,1.83
2022-12-28T16:35:16.305Z,1.50
2022-12-28T16:37:43.799Z,1.57
2022-12-28T16:40:12.088Z,2.70
2022-12-28T16:42:41.308Z,3.73
2022-12-28T16:45:08.921Z,1.60
2022-12-28T16:47:42.654Z,1.50
2022-12-28T16:50:04.024Z,1.67
2022-12-28T16:52:31.551Z,2.70
2022-12-28T16:54:59.082Z,1.60
2022-12-28T16:57:28.074Z,1.90
2022-12-28T16:59:56.372Z,1.50
2022-12-28T17:02:23.977Z,1.90
2022-12-28T17:04:52.278Z,4.77
2022-12-28T17:07:19.866Z,1.83
2022-12-28T17:09:50.244Z,3.03
2022-12-28T17:12:15.228Z,2.13
2022-12-28T17:14:42.756Z,2.40
2022-12-28T17:17:10.277Z,2.13
2022-12-28T17:19:38.609Z,2.80
2022-12-28T17:22:06.147Z,2.33
2022-12-28T17:24:33.673Z,1.90
2022-12-28T17:27:07.770Z,2.13
2022-12-28T17:29:29.563Z,1.60
2022-12-28T17:31:57.147Z,1.70
2022-12-28T17:34:25.449Z,1.37
2022-12-28T17:36:53.767Z,2.60
2022-12-28T17:39:21.293Z,2.30
2022-12-28T17:41:49.628Z,1.40
2022-12-28T17:44:17.154Z,1.30
2022-12-28T17:46:44.702Z,1.50
2022-12-28T17:49:12.255Z,1.30
2022-12-28T17:51:42.271Z,1.23
2022-12-28T17:54:12.691Z,1.50
2022-12-28T17:56:40.257Z,1.30
2022-12-28T17:59:08.093Z,1.57
2022-12-28T18:01:36.434Z,1.23
2022-12-28T18:04:04.647Z,1.27
2022-12-28T18:06:32.163Z,1.60
2022-12-28T18:08:59.699Z,1.23
2022-12-28T18:11:27.274Z,1.43
2022-12-28T18:13:54.808Z,1.40
2022-12-28T18:16:22.370Z,1.90
2022-12-28T18:18:49.899Z,1.30
2022-12-28T18:21:21.318Z,1.50
2022-12-28T18:23:47.773Z,1.73
2022-12-28T18:26:15.348Z,1.53
2022-12-28T18:28:43.649Z,1.70
2022-12-28T18:31:11.322Z,1.33
2022-12-28T18:33:38.751Z,1.60
2022-12-28T18:36:08.632Z,1.70
2022-12-28T18:38:34.697Z,1.60
2022-12-28T18:41:03.018Z,2.10
2022-12-28T18:43:30.533Z,2.03
2022-12-28T18:46:00.525Z,2.53
2022-12-28T18:48:28.057Z,2.60
2022-12-28T18:51:01.502Z,2.10
2022-12-28T18:53:29.797Z,2.60
2022-12-28T18:56:02.963Z,3.63
2022-12-28T18:58:31.263Z,2.97
2022-12-28T19:01:01.887Z,3.73
2022-12-28T19:03:29.631Z,4.17
2022-12-28T19:06:02.835Z,5.80
2022-12-28T19:08:27.310Z,2.87
2022-12-28T19:10:55.830Z,3.03
2022-12-28T19:13:23.292Z,2.80
2022-12-28T19:15:50.858Z,2.70
2022-12-28T19:18:19.130Z,3.00
2022-12-28T19:20:46.664Z,2.60
2022-12-28T19:23:14.196Z,3.13
2022-12-28T19:25:43.641Z,3.13
2022-12-28T19:28:11.167Z,2.80
2022-12-28T19:30:39.450Z,3.50
2022-12-28T19:33:07.637Z,3.00
2022-12-28T19:35:35.160Z,2.23
2022-12-28T19:38:03.472Z,2.67
2022-12-28T19:40:31.028Z,2.80
2022-12-28T19:42:58.562Z,2.33
2022-12-28T19:45:26.853Z,2.50
2022-12-28T19:47:55.167Z,1.97
2022-12-28T19:50:22.692Z,2.40
2022-12-28T19:52:50.227Z,2.20
2022-12-28T19:55:18.620Z,2.20
2022-12-28T19:57:46.952Z,2.77
2022-12-28T20:00:14.627Z,2.77
2022-12-28T20:02:42.279Z,2.70
2022-12-28T20:05:10.565Z,2.47
2022-12-28T20:07:38.101Z,2.40
2022-12-28T20:10:05.950Z,3.10
2022-12-28T20:12:33.473Z,2.83
2022-12-28T20:15:01.784Z,2.30
2022-12-28T20:17:30.128Z,2.40
2022-12-28T20:19:57.660Z,2.50
2022-12-28T20:22:25.175Z,2.73
2022-12-28T20:24:53.282Z,2.90
2022-12-28T20:27:20.818Z,2.73
2022-12-28T20:29:48.343Z,3.90
2022-12-28T20:32:16.665Z,2.80
2022-12-28T20:34:44.199Z,2.20
2022-12-28T20:37:11.747Z,2.53
2022-12-28T20:39:40.067Z,2.40
2022-12-28T20:42:26.182Z,2.40
2022-12-28T20:44:53.743Z,2.50
2022-12-28T20:47:21.275Z,2.47
2022-12-28T20:49:48.794Z,2.67
2022-12-28T20:52:16.357Z,2.30
2022-12-28T20:54:43.881Z,2.40
2022-12-28T20:57:11.417Z,2.30
2022-12-28T20:59:38.998Z,2.80
2022-12-28T21:02:06.589Z,2.60
2022-12-28T21:04:34.561Z,2.03
2022-12-28T21:07:04.166Z,3.20
2022-12-28T21:09:31.221Z,2.80
2022-12-28T21:11:58.768Z,2.67
2022-12-28T21:14:26.330Z,2.80
2022-12-28T21:16:53.962Z,3.10
2022-12-28T21:19:22.458Z,2.80
2022-12-28T21:21:50.791Z,3.17
2022-12-28T21:24:18.326Z,2.73
2022-12-28T21:26:45.848Z,2.30
2022-12-28T21:29:14.317Z,2.70
2022-12-28T21:31:42.622Z,2.33
2022-12-28T21:34:10.070Z,2.47
2022-12-28T21:36:38.417Z,2.50
2022-12-28T21:39:06.059Z,2.33
2022-12-28T21:41:43.188Z,2.90
2022-12-28T21:44:11.484Z,2.03
2022-12-28T21:46:39.781Z,2.07
2022-12-28T21:49:07.335Z,1.70
2022-12-28T21:51:37.915Z,1.97
2022-12-28T21:54:05.447Z,2.00
2022-12-28T21:56:33.022Z,2.30
2022-12-28T21:59:00.564Z,2.78
2022-12-28T22:01:46.540Z,2.03
2022-12-28T22:04:38.229Z,2.13
2022-12-28T22:07:05.819Z,1.83
2022-12-28T22:09:42.083Z,2.03
2022-12-28T22:12:30.538Z,2.73
2022-12-28T22:15:16.446Z,2.73
2022-12-28T22:17:44.893Z,2.50
2022-12-28T22:20:12.425Z,2.57
2022-12-28T22:22:40.727Z,2.63
2022-12-28T22:25:08.375Z,2.47
2022-12-28T22:27:35.902Z,3.00
2022-12-28T22:30:03.488Z,2.30
2022-12-28T22:32:31.854Z,2.63
2022-12-28T22:35:00.183Z,2.50
2022-12-28T22:37:27.680Z,2.17
2022-12-28T22:39:55.249Z,2.17
2022-12-28T22:42:23.546Z,2.00
2022-12-28T22:44:51.079Z,2.23
2022-12-28T22:47:19.420Z,2.37
2022-12-28T22:49:46.957Z,2.20
2022-12-28T22:52:14.498Z,2.73
2022-12-28T22:54:42.369Z,1.90
2022-12-28T22:57:09.891Z,2.30
2022-12-28T22:59:38.191Z,1.70
2022-12-28T23:02:05.842Z,2.47
2022-12-28T23:04:33.277Z,1.90
2022-12-28T23:07:03.836Z,1.80
2022-12-28T23:09:28.370Z,1.97
2022-12-28T23:11:55.923Z,1.60
2022-12-28T23:14:43.293Z,1.83
2022-12-28T23:17:09.468Z,1.33
2022-12-28T23:19:55.513Z,1.57
2022-12-28T23:22:42.294Z,1.30
2022-12-28T23:25:31.524Z,1.50
2022-12-28T23:27:59.032Z,1.50
2022-12-28T23:30:26.603Z,1.30
2022-12-28T23:32:54.128Z,1.40
2022-12-28T23:35:21.665Z,1.20
2022-12-28T23:37:49.192Z,1.13
2022-12-28T23:40:17.514Z,1.33
2022-12-28T23:42:45.047Z,1.43
2022-12-28T23:45:12.612Z,1.35
2022-12-28T23:47:40.174Z,1.27
2022-12-28T23:50:07.773Z,1.07
2022-12-28T23:52:35.320Z,0.87
2022-12-28T23:55:03.140Z,1.00
2022-12-28T23:57:31.430Z,0.83
2022-12-28T23:59:59.033Z,0.87
